sensor_id;sensor_type;location;lat;lon;timestamp;pressure;altitude;pressure_sealevel;temperature
29423;BMP180;16399;51.686;8.684;2022-09-02T00:00:43;100192.00;;;16.10
29423;BMP180;16399;51.686;8.684;2022-09-02T00:03:47;100182.00;;;16.00
29423;BMP180;16399;51.686;8.684;2022-09-02T00:06:51;100187.00;;;16.00
29423;BMP180;16399;51.686;8.684;2022-09-02T00:09:54;100190.00;;;16.00
29423;BMP180;16399;51.686;8.684;2022-09-02T00:12:57;100186.00;;;16.00
29423;BMP180;16399;51.686;8.684;2022-09-02T00:15:59;100183.00;;;16.00
29423;BMP180;16399;51.686;8.684;2022-09-02T00:19:03;100177.00;;;16.00
29423;BMP180;16399;51.686;8.684;2022-09-02T00:22:05;100171.00;;;15.90
29423;BMP180;16399;51.686;8.684;2022-09-02T00:25:08;100171.00;;;15.90
29423;BMP180;16399;51.686;8.684;2022-09-02T00:28:12;100173.00;;;15.90
29423;BMP180;16399;51.686;8.684;2022-09-02T00:31:14;100175.00;;;15.80
29423;BMP180;16399;51.686;8.684;2022-09-02T00:34:17;100171.00;;;15.80
29423;BMP180;16399;51.686;8.684;2022-09-02T00:37:21;100163.00;;;15.80
29423;BMP180;16399;51.686;8.684;2022-09-02T00:40:25;100164.00;;;15.80
29423;BMP180;16399;51.686;8.684;2022-09-02T00:43:48;100164.00;;;15.80
29423;BMP180;16399;51.686;8.684;2022-09-02T00:46:51;100159.00;;;15.80
29423;BMP180;16399;51.686;8.684;2022-09-02T00:49:54;100165.00;;;15.70
29423;BMP180;16399;51.686;8.684;2022-09-02T00:53:05;100161.00;;;15.70
29423;BMP180;16399;51.686;8.684;2022-09-02T00:56:05;100159.00;;;15.70
29423;BMP180;16399;51.686;8.684;2022-09-02T00:59:12;100163.00;;;15.70
29423;BMP180;16399;51.686;8.684;2022-09-02T01:02:15;100158.00;;;15.70
29423;BMP180;16399;51.686;8.684;2022-09-02T01:05:20;100154.00;;;15.70
29423;BMP180;16399;51.686;8.684;2022-09-02T01:08:26;100153.00;;;15.70
29423;BMP180;16399;51.686;8.684;2022-09-02T01:11:43;100153.00;;;15.70
29423;BMP180;16399;51.686;8.684;2022-09-02T01:14:41;100154.00;;;15.70
29423;BMP180;16399;51.686;8.684;2022-09-02T01:17:46;100150.00;;;15.80
29423;BMP180;16399;51.686;8.684;2022-09-02T01:20:49;100148.00;;;15.80
29423;BMP180;16399;51.686;8.684;2022-09-02T01:23:52;100149.00;;;15.70
29423;BMP180;16399;51.686;8.684;2022-09-02T01:26:57;100141.00;;;15.70
29423;BMP180;16399;51.686;8.684;2022-09-02T01:30:00;100133.00;;;15.70
29423;BMP180;16399;51.686;8.684;2022-09-02T01:33:03;100132.00;;;15.70
29423;BMP180;16399;51.686;8.684;2022-09-02T01:36:05;100130.00;;;15.70
29423;BMP180;16399;51.686;8.684;2022-09-02T01:39:10;100135.00;;;15.60
29423;BMP180;16399;51.686;8.684;2022-09-02T01:42:13;100132.00;;;15.60
29423;BMP180;16399;51.686;8.684;2022-09-02T01:45:16;100130.00;;;15.60
29423;BMP180;16399;51.686;8.684;2022-09-02T01:48:19;100128.00;;;15.60
29423;BMP180;16399;51.686;8.684;2022-09-02T01:51:22;100122.00;;;15.60
29423;BMP180;16399;51.686;8.684;2022-09-02T01:54:25;100103.00;;;15.60
29423;BMP180;16399;51.686;8.684;2022-09-02T01:57:27;100120.00;;;15.50
29423;BMP180;16399;51.686;8.684;2022-09-02T02:00:29;100111.00;;;15.50
29423;BMP180;16399;51.686;8.684;2022-09-02T02:03:32;100118.00;;;15.50
29423;BMP180;16399;51.686;8.684;2022-09-02T02:06:40;100107.00;;;15.50
29423;BMP180;16399;51.686;8.684;2022-09-02T02:09:43;100102.00;;;15.50
29423;BMP180;16399;51.686;8.684;2022-09-02T02:12:46;100108.00;;;15.50
29423;BMP180;16399;51.686;8.684;2022-09-02T02:15:48;100104.00;;;15.50
29423;BMP180;16399;51.686;8.684;2022-09-02T02:18:51;100104.00;;;15.50
29423;BMP180;16399;51.686;8.684;2022-09-02T02:21:53;100103.00;;;15.50
29423;BMP180;16399;51.686;8.684;2022-09-02T02:24:56;100099.00;;;15.40
29423;BMP180;16399;51.686;8.684;2022-09-02T02:27:58;100100.00;;;15.40
29423;BMP180;16399;51.686;8.684;2022-09-02T02:31:01;100098.00;;;15.40
29423;BMP180;16399;51.686;8.684;2022-09-02T02:34:04;100106.00;;;15.40
29423;BMP180;16399;51.686;8.684;2022-09-02T02:37:06;100105.00;;;15.40
29423;BMP180;16399;51.686;8.684;2022-09-02T02:40:10;100106.00;;;15.30
29423;BMP180;16399;51.686;8.684;2022-09-02T02:43:12;100106.00;;;15.30
29423;BMP180;16399;51.686;8.684;2022-09-02T02:46:15;100089.00;;;15.30
29423;BMP180;16399;51.686;8.684;2022-09-02T02:49:18;100096.00;;;15.20
29423;BMP180;16399;51.686;8.684;2022-09-02T02:52:20;100097.00;;;15.20
29423;BMP180;16399;51.686;8.684;2022-09-02T02:55:24;100097.00;;;15.10
29423;BMP180;16399;51.686;8.684;2022-09-02T02:58:27;100090.00;;;15.10
29423;BMP180;16399;51.686;8.684;2022-09-02T03:01:30;100086.00;;;15.00
29423;BMP180;16399;51.686;8.684;2022-09-02T03:04:33;100088.00;;;15.00
29423;BMP180;16399;51.686;8.684;2022-09-02T03:07:36;100095.00;;;15.00
29423;BMP180;16399;51.686;8.684;2022-09-02T03:10:39;100094.00;;;15.00
29423;BMP180;16399;51.686;8.684;2022-09-02T03:13:42;100086.00;;;15.00
29423;BMP180;16399;51.686;8.684;2022-09-02T03:16:44;100088.00;;;14.90
29423;BMP180;16399;51.686;8.684;2022-09-02T03:19:47;100090.00;;;14.90
29423;BMP180;16399;51.686;8.684;2022-09-02T03:22:53;100089.00;;;14.90
29423;BMP180;16399;51.686;8.684;2022-09-02T03:25:55;100089.00;;;14.90
29423;BMP180;16399;51.686;8.684;2022-09-02T03:28:58;100086.00;;;14.90
29423;BMP180;16399;51.686;8.684;2022-09-02T03:32:00;100084.00;;;14.80
29423;BMP180;16399;51.686;8.684;2022-09-02T03:35:04;100087.00;;;14.80
29423;BMP180;16399;51.686;8.684;2022-09-02T03:38:08;100081.00;;;14.80
29423;BMP180;16399;51.686;8.684;2022-09-02T03:41:11;100087.00;;;14.80
29423;BMP180;16399;51.686;8.684;2022-09-02T03:44:13;100081.00;;;14.70
29423;BMP180;16399;51.686;8.684;2022-09-02T03:47:15;100079.00;;;14.70
29423;BMP180;16399;51.686;8.684;2022-09-02T03:50:30;100082.00;;;14.70
29423;BMP180;16399;51.686;8.684;2022-09-02T03:53:27;100075.00;;;14.70
29423;BMP180;16399;51.686;8.684;2022-09-02T03:56:30;100086.00;;;14.60
29423;BMP180;16399;51.686;8.684;2022-09-02T03:59:32;100075.00;;;14.60
29423;BMP180;16399;51.686;8.684;2022-09-02T04:02:34;100068.00;;;14.60
29423;BMP180;16399;51.686;8.684;2022-09-02T04:05:37;100082.00;;;14.60
29423;BMP180;16399;51.686;8.684;2022-09-02T04:08:40;100080.00;;;14.60
29423;BMP180;16399;51.686;8.684;2022-09-02T04:11:45;100076.00;;;14.60
29423;BMP180;16399;51.686;8.684;2022-09-02T04:14:47;100062.00;;;14.60
29423;BMP180;16399;51.686;8.684;2022-09-02T04:17:49;100065.00;;;14.60
29423;BMP180;16399;51.686;8.684;2022-09-02T04:20:52;100058.00;;;14.60
29423;BMP180;16399;51.686;8.684;2022-09-02T04:23:55;100062.00;;;14.60
29423;BMP180;16399;51.686;8.684;2022-09-02T04:26:57;100065.00;;;14.60
29423;BMP180;16399;51.686;8.684;2022-09-02T04:30:00;100064.00;;;14.60
29423;BMP180;16399;51.686;8.684;2022-09-02T04:33:02;100060.00;;;14.60
29423;BMP180;16399;51.686;8.684;2022-09-02T04:36:07;100061.00;;;14.60
29423;BMP180;16399;51.686;8.684;2022-09-02T04:39:10;100065.00;;;14.60
29423;BMP180;16399;51.686;8.684;2022-09-02T04:42:12;100056.00;;;14.70
29423;BMP180;16399;51.686;8.684;2022-09-02T04:45:15;100050.00;;;14.70
29423;BMP180;16399;51.686;8.684;2022-09-02T04:48:18;100059.00;;;14.80
29423;BMP180;16399;51.686;8.684;2022-09-02T04:51:23;100057.00;;;14.80
29423;BMP180;16399;51.686;8.684;2022-09-02T04:54:25;100053.00;;;14.90
29423;BMP180;16399;51.686;8.684;2022-09-02T04:57:28;100070.00;;;14.90
29423;BMP180;16399;51.686;8.684;2022-09-02T05:00:30;100048.00;;;15.00
29423;BMP180;16399;51.686;8.684;2022-09-02T05:03:33;100051.00;;;15.00
29423;BMP180;16399;51.686;8.684;2022-09-02T05:06:36;100056.00;;;15.10
29423;BMP180;16399;51.686;8.684;2022-09-02T05:09:40;100056.00;;;15.20
29423;BMP180;16399;51.686;8.684;2022-09-02T05:12:42;100043.00;;;15.30
29423;BMP180;16399;51.686;8.684;2022-09-02T05:15:45;100046.00;;;15.40
29423;BMP180;16399;51.686;8.684;2022-09-02T05:18:49;100046.00;;;15.50
29423;BMP180;16399;51.686;8.684;2022-09-02T05:21:52;100051.00;;;15.70
29423;BMP180;16399;51.686;8.684;2022-09-02T05:24:56;100046.00;;;15.90
29423;BMP180;16399;51.686;8.684;2022-09-02T05:27:58;100048.00;;;16.00
29423;BMP180;16399;51.686;8.684;2022-09-02T05:31:07;100047.00;;;16.10
29423;BMP180;16399;51.686;8.684;2022-09-02T05:34:10;100052.00;;;16.20
29423;BMP180;16399;51.686;8.684;2022-09-02T05:37:13;100051.00;;;16.20
29423;BMP180;16399;51.686;8.684;2022-09-02T05:40:15;100035.00;;;16.30
29423;BMP180;16399;51.686;8.684;2022-09-02T05:43:17;100047.00;;;16.50
29423;BMP180;16399;51.686;8.684;2022-09-02T05:46:22;100043.00;;;16.60
29423;BMP180;16399;51.686;8.684;2022-09-02T05:49:24;100044.00;;;16.70
29423;BMP180;16399;51.686;8.684;2022-09-02T05:52:27;100042.00;;;16.80
29423;BMP180;16399;51.686;8.684;2022-09-02T05:55:31;100035.00;;;16.90
29423;BMP180;16399;51.686;8.684;2022-09-02T05:58:33;100039.00;;;17.00
29423;BMP180;16399;51.686;8.684;2022-09-02T06:01:36;100036.00;;;17.00
29423;BMP180;16399;51.686;8.684;2022-09-02T06:04:41;100029.00;;;17.00
29423;BMP180;16399;51.686;8.684;2022-09-02T06:07:43;100029.00;;;17.10
29423;BMP180;16399;51.686;8.684;2022-09-02T06:10:46;100037.00;;;17.00
29423;BMP180;16399;51.686;8.684;2022-09-02T06:13:48;100036.00;;;17.10
29423;BMP180;16399;51.686;8.684;2022-09-02T06:16:53;100033.00;;;17.00
29423;BMP180;16399;51.686;8.684;2022-09-02T06:19:56;100048.00;;;17.00
29423;BMP180;16399;51.686;8.684;2022-09-02T06:22:58;100033.00;;;17.10
29423;BMP180;16399;51.686;8.684;2022-09-02T06:26:01;100041.00;;;17.00
29423;BMP180;16399;51.686;8.684;2022-09-02T06:29:05;100032.00;;;17.00
29423;BMP180;16399;51.686;8.684;2022-09-02T06:32:07;100029.00;;;17.10
29423;BMP180;16399;51.686;8.684;2022-09-02T06:35:10;100036.00;;;17.20
29423;BMP180;16399;51.686;8.684;2022-09-02T06:38:14;100030.00;;;17.20
29423;BMP180;16399;51.686;8.684;2022-09-02T06:41:23;100035.00;;;17.30
29423;BMP180;16399;51.686;8.684;2022-09-02T06:44:27;100020.00;;;17.40
29423;BMP180;16399;51.686;8.684;2022-09-02T06:47:29;100044.00;;;17.40
29423;BMP180;16399;51.686;8.684;2022-09-02T06:50:32;100039.00;;;17.40
29423;BMP180;16399;51.686;8.684;2022-09-02T06:53:34;100045.00;;;17.50
29423;BMP180;16399;51.686;8.684;2022-09-02T06:56:37;100021.00;;;17.60
29423;BMP180;16399;51.686;8.684;2022-09-02T06:59:39;100044.00;;;17.60
29423;BMP180;16399;51.686;8.684;2022-09-02T07:02:42;100037.00;;;17.70
29423;BMP180;16399;51.686;8.684;2022-09-02T07:05:46;100042.00;;;17.80
29423;BMP180;16399;51.686;8.684;2022-09-02T07:08:48;100035.00;;;17.90
29423;BMP180;16399;51.686;8.684;2022-09-02T07:11:50;100046.00;;;18.00
29423;BMP180;16399;51.686;8.684;2022-09-02T07:14:53;100041.00;;;18.10
29423;BMP180;16399;51.686;8.684;2022-09-02T07:17:56;100038.00;;;18.20
29423;BMP180;16399;51.686;8.684;2022-09-02T07:20:58;100033.00;;;18.20
29423;BMP180;16399;51.686;8.684;2022-09-02T07:24:01;100033.00;;;18.30
29423;BMP180;16399;51.686;8.684;2022-09-02T07:27:03;100027.00;;;18.40
29423;BMP180;16399;51.686;8.684;2022-09-02T07:30:07;100039.00;;;18.50
29423;BMP180;16399;51.686;8.684;2022-09-02T07:33:11;100035.00;;;18.60
29423;BMP180;16399;51.686;8.684;2022-09-02T07:36:14;100038.00;;;18.60
29423;BMP180;16399;51.686;8.684;2022-09-02T07:39:17;100030.00;;;18.60
29423;BMP180;16399;51.686;8.684;2022-09-02T07:42:20;100031.00;;;18.80
29423;BMP180;16399;51.686;8.684;2022-09-02T07:45:23;100031.00;;;18.90
29423;BMP180;16399;51.686;8.684;2022-09-02T07:48:26;100043.00;;;19.10
29423;BMP180;16399;51.686;8.684;2022-09-02T07:51:29;100031.00;;;19.20
29423;BMP180;16399;51.686;8.684;2022-09-02T07:54:32;100035.00;;;19.30
29423;BMP180;16399;51.686;8.684;2022-09-02T07:57:35;100023.00;;;19.50
29423;BMP180;16399;51.686;8.684;2022-09-02T08:00:38;100023.00;;;19.60
29423;BMP180;16399;51.686;8.684;2022-09-02T08:03:43;100027.00;;;19.90
29423;BMP180;16399;51.686;8.684;2022-09-02T08:06:45;100025.00;;;20.00
29423;BMP180;16399;51.686;8.684;2022-09-02T08:09:49;100019.00;;;20.20
29423;BMP180;16399;51.686;8.684;2022-09-02T08:12:51;100030.00;;;20.50
29423;BMP180;16399;51.686;8.684;2022-09-02T08:15:54;100015.00;;;20.70
29423;BMP180;16399;51.686;8.684;2022-09-02T08:18:56;100022.00;;;20.90
29423;BMP180;16399;51.686;8.684;2022-09-02T08:22:05;100014.00;;;20.90
29423;BMP180;16399;51.686;8.684;2022-09-02T08:25:08;100009.00;;;21.00
29423;BMP180;16399;51.686;8.684;2022-09-02T08:28:10;100013.00;;;21.00
29423;BMP180;16399;51.686;8.684;2022-09-02T08:31:13;100012.00;;;21.20
29423;BMP180;16399;51.686;8.684;2022-09-02T08:34:15;100009.00;;;21.40
29423;BMP180;16399;51.686;8.684;2022-09-02T08:37:17;100007.00;;;21.60
29423;BMP180;16399;51.686;8.684;2022-09-02T08:40:22;100000.00;;;21.90
29423;BMP180;16399;51.686;8.684;2022-09-02T08:43:34;99995.00;;;21.90
29423;BMP180;16399;51.686;8.684;2022-09-02T08:46:40;99993.00;;;22.10
29423;BMP180;16399;51.686;8.684;2022-09-02T08:49:45;99996.00;;;22.10
29423;BMP180;16399;51.686;8.684;2022-09-02T08:52:55;99994.00;;;22.30
29423;BMP180;16399;51.686;8.684;2022-09-02T08:55:58;99996.00;;;22.50
29423;BMP180;16399;51.686;8.684;2022-09-02T08:59:02;100000.00;;;22.70
29423;BMP180;16399;51.686;8.684;2022-09-02T09:02:20;99997.00;;;22.60
29423;BMP180;16399;51.686;8.684;2022-09-02T09:08:55;99986.00;;;22.50
29423;BMP180;16399;51.686;8.684;2022-09-02T09:18:15;99992.00;;;22.30
29423;BMP180;16399;51.686;8.684;2022-09-02T09:21:17;99992.00;;;22.00
29423;BMP180;16399;51.686;8.684;2022-09-02T09:24:29;99990.00;;;21.60
29423;BMP180;16399;51.686;8.684;2022-09-02T09:27:30;99991.00;;;21.20
29423;BMP180;16399;51.686;8.684;2022-09-02T09:30:33;99986.00;;;21.00
29423;BMP180;16399;51.686;8.684;2022-09-02T09:33:35;99981.00;;;20.90
29423;BMP180;16399;51.686;8.684;2022-09-02T09:36:43;99992.00;;;20.80
29423;BMP180;16399;51.686;8.684;2022-09-02T09:39:45;99980.00;;;21.00
29423;BMP180;16399;51.686;8.684;2022-09-02T09:42:54;99971.00;;;21.40
29423;BMP180;16399;51.686;8.684;2022-09-02T09:45:57;99969.00;;;21.80
29423;BMP180;16399;51.686;8.684;2022-09-02T09:48:59;99975.00;;;22.30
29423;BMP180;16399;51.686;8.684;2022-09-02T09:52:02;99960.00;;;22.50
29423;BMP180;16399;51.686;8.684;2022-09-02T09:58:13;99973.00;;;22.80
29423;BMP180;16399;51.686;8.684;2022-09-02T10:04:29;99960.00;;;23.20
29423;BMP180;16399;51.686;8.684;2022-09-02T10:07:40;99956.00;;;23.40
29423;BMP180;16399;51.686;8.684;2022-09-02T10:10:58;99950.00;;;23.70
29423;BMP180;16399;51.686;8.684;2022-09-02T10:14:08;99964.00;;;24.00
29423;BMP180;16399;51.686;8.684;2022-09-02T10:20:48;99966.00;;;24.20
29423;BMP180;16399;51.686;8.684;2022-09-02T10:24:00;99960.00;;;24.30
29423;BMP180;16399;51.686;8.684;2022-09-02T10:27:02;99944.00;;;24.40
29423;BMP180;16399;51.686;8.684;2022-09-02T10:30:20;99944.00;;;24.40
29423;BMP180;16399;51.686;8.684;2022-09-02T10:33:42;99942.00;;;24.50
29423;BMP180;16399;51.686;8.684;2022-09-02T10:40:11;99939.00;;;24.60
29423;BMP180;16399;51.686;8.684;2022-09-02T10:43:26;99944.00;;;24.70
29423;BMP180;16399;51.686;8.684;2022-09-02T10:46:34;99942.00;;;24.80
29423;BMP180;16399;51.686;8.684;2022-09-02T10:59:31;99931.00;;;25.40
29423;BMP180;16399;51.686;8.684;2022-09-02T11:02:41;99941.00;;;25.50
29423;BMP180;16399;51.686;8.684;2022-09-02T11:05:52;99944.00;;;25.60
29423;BMP180;16399;51.686;8.684;2022-09-02T11:08:57;99942.00;;;25.50
29423;BMP180;16399;51.686;8.684;2022-09-02T11:12:17;99943.00;;;25.50
29423;BMP180;16399;51.686;8.684;2022-09-02T11:15:26;99947.00;;;25.60
29423;BMP180;16399;51.686;8.684;2022-09-02T11:25:22;99929.00;;;25.50
29423;BMP180;16399;51.686;8.684;2022-09-02T11:31:39;99926.00;;;25.50
29423;BMP180;16399;51.686;8.684;2022-09-02T11:34:46;99941.00;;;25.50
29423;BMP180;16399;51.686;8.684;2022-09-02T11:38:03;99930.00;;;25.20
29423;BMP180;16399;51.686;8.684;2022-09-02T11:41:14;99915.00;;;25.00
29423;BMP180;16399;51.686;8.684;2022-09-02T11:51:06;99931.00;;;24.60
29423;BMP180;16399;51.686;8.684;2022-09-02T11:54:08;99917.00;;;24.50
29423;BMP180;16399;51.686;8.684;2022-09-02T11:57:15;99905.00;;;24.70
29423;BMP180;16399;51.686;8.684;2022-09-02T12:00:34;99903.00;;;25.20
29423;BMP180;16399;51.686;8.684;2022-09-02T12:10:33;99906.00;;;26.10
29423;BMP180;16399;51.686;8.684;2022-09-02T12:13:39;99881.00;;;26.10
29423;BMP180;16399;51.686;8.684;2022-09-02T12:16:44;99893.00;;;26.30
29423;BMP180;16399;51.686;8.684;2022-09-02T12:19:46;99891.00;;;26.30
29423;BMP180;16399;51.686;8.684;2022-09-02T12:22:50;99891.00;;;26.10
29423;BMP180;16399;51.686;8.684;2022-09-02T12:25:59;99886.00;;;26.10
29423;BMP180;16399;51.686;8.684;2022-09-02T12:35:50;99869.00;;;26.50
29423;BMP180;16399;51.686;8.684;2022-09-02T12:38:53;99870.00;;;26.70
29423;BMP180;16399;51.686;8.684;2022-09-02T12:45:14;99869.00;;;26.70
29423;BMP180;16399;51.686;8.684;2022-09-02T12:48:18;99877.00;;;26.50
29423;BMP180;16399;51.686;8.684;2022-09-02T12:54:35;99854.00;;;26.10
29423;BMP180;16399;51.686;8.684;2022-09-02T12:57:43;99855.00;;;26.00
29423;BMP180;16399;51.686;8.684;2022-09-02T13:01:14;99861.00;;;25.80
29423;BMP180;16399;51.686;8.684;2022-09-02T13:08:06;99855.00;;;24.80
29423;BMP180;16399;51.686;8.684;2022-09-02T13:25:10;99830.00;;;24.60
29423;BMP180;16399;51.686;8.684;2022-09-02T13:28:19;99842.00;;;24.60
29423;BMP180;16399;51.686;8.684;2022-09-02T13:31:20;99836.00;;;24.60
29423;BMP180;16399;51.686;8.684;2022-09-02T13:34:23;99822.00;;;24.70
29423;BMP180;16399;51.686;8.684;2022-09-02T13:37:42;99828.00;;;25.00
29423;BMP180;16399;51.686;8.684;2022-09-02T13:40:44;99834.00;;;25.30
29423;BMP180;16399;51.686;8.684;2022-09-02T13:44:03;99832.00;;;25.30
29423;BMP180;16399;51.686;8.684;2022-09-02T13:50:02;99811.00;;;25.10
29423;BMP180;16399;51.686;8.684;2022-09-02T13:53:07;99824.00;;;24.90
29423;BMP180;16399;51.686;8.684;2022-09-02T13:56:13;99829.00;;;24.90
29423;BMP180;16399;51.686;8.684;2022-09-02T13:59:32;99827.00;;;24.90
29423;BMP180;16399;51.686;8.684;2022-09-02T14:02:36;99813.00;;;24.90
29423;BMP180;16399;51.686;8.684;2022-09-02T14:05:40;99806.00;;;25.00
29423;BMP180;16399;51.686;8.684;2022-09-02T14:08:44;99801.00;;;25.10
29423;BMP180;16399;51.686;8.684;2022-09-02T14:11:47;99797.00;;;25.30
29423;BMP180;16399;51.686;8.684;2022-09-02T14:14:49;99798.00;;;25.40
29423;BMP180;16399;51.686;8.684;2022-09-02T14:18:09;99792.00;;;25.50
29423;BMP180;16399;51.686;8.684;2022-09-02T14:21:18;99792.00;;;25.60
29423;BMP180;16399;51.686;8.684;2022-09-02T14:24:23;99793.00;;;25.40
29423;BMP180;16399;51.686;8.684;2022-09-02T14:27:26;99799.00;;;25.20
29423;BMP180;16399;51.686;8.684;2022-09-02T14:30:39;99788.00;;;24.90
29423;BMP180;16399;51.686;8.684;2022-09-02T14:33:44;99788.00;;;24.60
29423;BMP180;16399;51.686;8.684;2022-09-02T14:36:47;99792.00;;;24.30
29423;BMP180;16399;51.686;8.684;2022-09-02T14:40:09;99788.00;;;24.10
29423;BMP180;16399;51.686;8.684;2022-09-02T14:43:14;99787.00;;;24.00
29423;BMP180;16399;51.686;8.684;2022-09-02T14:46:31;99780.00;;;23.90
29423;BMP180;16399;51.686;8.684;2022-09-02T14:49:44;99781.00;;;23.80
29423;BMP180;16399;51.686;8.684;2022-09-02T14:52:48;99776.00;;;23.60
29423;BMP180;16399;51.686;8.684;2022-09-02T14:55:53;99775.00;;;23.60
29423;BMP180;16399;51.686;8.684;2022-09-02T14:58:55;99773.00;;;23.60
29423;BMP180;16399;51.686;8.684;2022-09-02T15:01:58;99777.00;;;23.60
29423;BMP180;16399;51.686;8.684;2022-09-02T15:05:03;99779.00;;;23.70
29423;BMP180;16399;51.686;8.684;2022-09-02T15:08:06;99767.00;;;23.60
29423;BMP180;16399;51.686;8.684;2022-09-02T15:11:09;99764.00;;;23.60
29423;BMP180;16399;51.686;8.684;2022-09-02T15:14:13;99755.00;;;23.60
29423;BMP180;16399;51.686;8.684;2022-09-02T15:17:15;99756.00;;;23.70
29423;BMP180;16399;51.686;8.684;2022-09-02T15:20:18;99756.00;;;23.80
29423;BMP180;16399;51.686;8.684;2022-09-02T15:23:21;99753.00;;;24.00
29423;BMP180;16399;51.686;8.684;2022-09-02T15:26:24;99746.00;;;24.20
29423;BMP180;16399;51.686;8.684;2022-09-02T15:29:26;99750.00;;;24.30
29423;BMP180;16399;51.686;8.684;2022-09-02T15:32:28;99742.00;;;24.30
29423;BMP180;16399;51.686;8.684;2022-09-02T15:35:32;99746.00;;;24.20
29423;BMP180;16399;51.686;8.684;2022-09-02T15:38:35;99741.00;;;24.00
29423;BMP180;16399;51.686;8.684;2022-09-02T15:41:38;99752.00;;;23.90
29423;BMP180;16399;51.686;8.684;2022-09-02T15:44:40;99745.00;;;23.80
29423;BMP180;16399;51.686;8.684;2022-09-02T15:47:42;99735.00;;;23.70
29423;BMP180;16399;51.686;8.684;2022-09-02T15:50:45;99732.00;;;23.70
29423;BMP180;16399;51.686;8.684;2022-09-02T15:53:52;99725.00;;;23.80
29423;BMP180;16399;51.686;8.684;2022-09-02T15:56:55;99736.00;;;23.90
29423;BMP180;16399;51.686;8.684;2022-09-02T15:59:58;99729.00;;;24.00
29423;BMP180;16399;51.686;8.684;2022-09-02T16:03:01;99729.00;;;24.10
29423;BMP180;16399;51.686;8.684;2022-09-02T16:06:05;99735.00;;;24.10
29423;BMP180;16399;51.686;8.684;2022-09-02T16:09:12;99722.00;;;23.90
29423;BMP180;16399;51.686;8.684;2022-09-02T16:12:15;99732.00;;;23.80
29423;BMP180;16399;51.686;8.684;2022-09-02T16:15:18;99732.00;;;23.70
29423;BMP180;16399;51.686;8.684;2022-09-02T16:18:21;99721.00;;;23.60
29423;BMP180;16399;51.686;8.684;2022-09-02T16:21:23;99708.00;;;23.50
29423;BMP180;16399;51.686;8.684;2022-09-02T16:24:26;99712.00;;;23.40
29423;BMP180;16399;51.686;8.684;2022-09-02T16:27:28;99719.00;;;23.30
29423;BMP180;16399;51.686;8.684;2022-09-02T16:30:50;99703.00;;;23.20
29423;BMP180;16399;51.686;8.684;2022-09-02T16:33:55;99701.00;;;23.20
29423;BMP180;16399;51.686;8.684;2022-09-02T16:36:57;99707.00;;;23.10
29423;BMP180;16399;51.686;8.684;2022-09-02T16:40:01;99706.00;;;23.20
29423;BMP180;16399;51.686;8.684;2022-09-02T16:43:03;99697.00;;;23.20
29423;BMP180;16399;51.686;8.684;2022-09-02T16:46:06;99706.00;;;23.20
29423;BMP180;16399;51.686;8.684;2022-09-02T16:49:11;99694.00;;;23.20
29423;BMP180;16399;51.686;8.684;2022-09-02T16:52:13;99681.00;;;23.30
29423;BMP180;16399;51.686;8.684;2022-09-02T16:55:16;99682.00;;;23.30
29423;BMP180;16399;51.686;8.684;2022-09-02T16:58:19;99684.00;;;23.30
29423;BMP180;16399;51.686;8.684;2022-09-02T17:01:22;99686.00;;;23.20
29423;BMP180;16399;51.686;8.684;2022-09-02T17:04:24;99686.00;;;23.20
29423;BMP180;16399;51.686;8.684;2022-09-02T17:07:26;99690.00;;;23.20
29423;BMP180;16399;51.686;8.684;2022-09-02T17:10:30;99687.00;;;23.10
29423;BMP180;16399;51.686;8.684;2022-09-02T17:13:32;99680.00;;;23.00
29423;BMP180;16399;51.686;8.684;2022-09-02T17:16:42;99690.00;;;22.90
29423;BMP180;16399;51.686;8.684;2022-09-02T17:19:40;99688.00;;;22.90
29423;BMP180;16399;51.686;8.684;2022-09-02T17:22:42;99679.00;;;22.80
29423;BMP180;16399;51.686;8.684;2022-09-02T17:25:45;99685.00;;;22.70
29423;BMP180;16399;51.686;8.684;2022-09-02T17:28:47;99685.00;;;22.60
29423;BMP180;16399;51.686;8.684;2022-09-02T17:31:50;99686.00;;;22.60
29423;BMP180;16399;51.686;8.684;2022-09-02T17:34:54;99688.00;;;22.50
29423;BMP180;16399;51.686;8.684;2022-09-02T17:37:56;99692.00;;;22.40
29423;BMP180;16399;51.686;8.684;2022-09-02T17:40:58;99696.00;;;22.40
29423;BMP180;16399;51.686;8.684;2022-09-02T17:44:20;99695.00;;;22.30
29423;BMP180;16399;51.686;8.684;2022-09-02T17:47:23;99694.00;;;22.20
29423;BMP180;16399;51.686;8.684;2022-09-02T17:50:25;99697.00;;;22.10
29423;BMP180;16399;51.686;8.684;2022-09-02T17:53:28;99699.00;;;22.00
29423;BMP180;16399;51.686;8.684;2022-09-02T18:03:16;99696.00;;;21.80
29423;BMP180;16399;51.686;8.684;2022-09-02T18:06:22;99709.00;;;21.70
29423;BMP180;16399;51.686;8.684;2022-09-02T18:09:27;99708.00;;;21.70
29423;BMP180;16399;51.686;8.684;2022-09-02T18:12:30;99702.00;;;21.60
29423;BMP180;16399;51.686;8.684;2022-09-02T18:15:53;99703.00;;;21.50
29423;BMP180;16399;51.686;8.684;2022-09-02T18:19:23;99705.00;;;21.50
29423;BMP180;16399;51.686;8.684;2022-09-02T18:26:09;99710.00;;;21.30
29423;BMP180;16399;51.686;8.684;2022-09-02T18:32:46;99718.00;;;21.20
29423;BMP180;16399;51.686;8.684;2022-09-02T18:35:55;99722.00;;;21.10
29423;BMP180;16399;51.686;8.684;2022-09-02T18:39:18;99724.00;;;21.00
29423;BMP180;16399;51.686;8.684;2022-09-02T18:42:31;99728.00;;;21.00
29423;BMP180;16399;51.686;8.684;2022-09-02T18:45:37;99716.00;;;20.90
29423;BMP180;16399;51.686;8.684;2022-09-02T18:48:39;99726.00;;;20.90
29423;BMP180;16399;51.686;8.684;2022-09-02T18:51:43;99727.00;;;20.80
29423;BMP180;16399;51.686;8.684;2022-09-02T18:54:48;99730.00;;;20.70
29423;BMP180;16399;51.686;8.684;2022-09-02T18:57:55;99732.00;;;20.70
29423;BMP180;16399;51.686;8.684;2022-09-02T19:01:01;99737.00;;;20.60
29423;BMP180;16399;51.686;8.684;2022-09-02T19:04:03;99741.00;;;20.50
29423;BMP180;16399;51.686;8.684;2022-09-02T19:07:05;99735.00;;;20.50
29423;BMP180;16399;51.686;8.684;2022-09-02T19:10:26;99743.00;;;20.40
29423;BMP180;16399;51.686;8.684;2022-09-02T19:13:31;99745.00;;;20.40
29423;BMP180;16399;51.686;8.684;2022-09-02T19:16:36;99742.00;;;20.30
29423;BMP180;16399;51.686;8.684;2022-09-02T19:19:38;99736.00;;;20.30